Time;durP1;ratioP1;P1;durP2;ratioP2;P2;SDS_P1;SDS_P2;PMS_P1;PMS_P2;Temp;Humidity;BMP_temperature;BMP_pressure;BME280_temperature;BME280_humidity;BME280_pressure;Samples;Min_cycle;Max_cycle;Signal;HPM_P1;HPM_P2
2023/12/06 00:02:01;;;;;;;;;;;;;;;1.25;100.00;95112.59;10464954;28;2887;-73
2023/12/06 00:07:03;;;;;;;;;;;;;;;1.25;100.00;95112.59;10474904;28;2911;-72
2023/12/06 00:12:06;;;;;;;;;;;;;;;1.24;100.00;95105.69;10490132;28;2841;-73
2023/12/06 00:17:08;;;;;;;;;;;;;;;1.18;100.00;95107.44;10479871;28;2864;-71
2023/12/06 00:22:11;;;;;;;;;;;;;;;1.23;100.00;95112.84;10484037;28;2918;-74
2023/12/06 00:27:13;;;;;;;;;;;;;;;1.30;100.00;95112.72;10472837;28;2839;-73
2023/12/06 00:32:16;;;;;;;;;;;;;;;1.37;100.00;95105.47;10475491;28;2934;-78
2023/12/06 00:37:19;;;;;;;;;;;;;;;1.42;100.00;95108.22;10470389;28;2953;-73
2023/12/06 00:42:21;;;;;;;;;;;;;;;1.49;100.00;95113.38;10476412;28;3203;-74
2023/12/06 00:47:24;;;;;;;;;;;;;;;1.49;100.00;95108.91;10472545;28;4746;-74
2023/12/06 00:52:27;;;;;;;;;;;;;;;1.57;100.00;95113.81;10479281;28;2915;-73
2023/12/06 00:57:30;;;;;;;;;;;;;;;1.59;100.00;95114.41;10471880;28;2934;-75
2023/12/06 01:02:32;;;;;;;;;;;;;;;1.53;100.00;95110.06;10476062;28;2797;-71
2023/12/06 01:07:35;;;;;;;;;;;;;;;1.55;100.00;95118.56;10479954;28;2844;-72
2023/12/06 01:12:37;;;;;;;;;;;;;;;1.54;100.00;95124.09;10479113;28;2971;-73
2023/12/06 01:17:40;;;;;;;;;;;;;;;1.49;100.00;95124.00;10476197;28;2823;-72
2023/12/06 01:22:42;;;;;;;;;;;;;;;1.49;100.00;95119.50;10472737;28;2902;-74
2023/12/06 01:27:44;;;;;;;;;;;;;;;1.49;100.00;95119.50;10475216;28;2839;-73
2023/12/06 01:32:47;;;;;;;;;;;;;;;1.56;100.00;95120.16;10471547;28;2816;-73
2023/12/06 01:37:50;;;;;;;;;;;;;;;1.56;100.00;95122.81;10474462;28;2893;-71
2023/12/06 01:42:52;;;;;;;;;;;;;;;1.60;100.00;95123.97;10467909;28;2839;-71
2023/12/06 01:47:55;;;;;;;;;;;;;;;1.57;100.00;95129.72;10476134;28;4702;-71
2023/12/06 01:52:57;;;;;;;;;;;;;;;1.50;100.00;95131.69;10471768;28;2880;-72
2023/12/06 01:58:00;;;;;;;;;;;;;;;1.57;100.00;95134.22;10472719;28;3268;-72
2023/12/06 02:03:02;;;;;;;;;;;;;;;1.59;100.00;95135.63;10468681;28;2860;-72
2023/12/06 02:08:05;;;;;;;;;;;;;;;1.60;100.00;95137.22;10470681;28;2925;-71
2023/12/06 02:13:08;;;;;;;;;;;;;;;1.66;100.00;95139.97;10477458;28;2868;-73
2023/12/06 02:18:10;;;;;;;;;;;;;;;1.67;100.00;95137.09;10473681;28;2812;-73
2023/12/06 02:23:13;;;;;;;;;;;;;;;1.66;100.00;95138.13;10469869;28;2929;-73
2023/12/06 02:28:16;;;;;;;;;;;;;;;1.62;100.00;95144.94;10466843;28;2835;-72
2023/12/06 02:33:19;;;;;;;;;;;;;;;1.70;100.00;95143.75;10474271;28;2843;-71
2023/12/06 02:38:21;;;;;;;;;;;;;;;1.68;100.00;95143.19;10466714;28;2995;-73
2023/12/06 02:43:24;;;;;;;;;;;;;;;1.69;100.00;95144.81;10465113;28;4618;-74
2023/12/06 02:48:26;;;;;;;;;;;;;;;1.69;100.00;95139.50;10470845;28;3008;-73
2023/12/06 02:53:29;;;;;;;;;;;;;;;1.63;100.00;95142.03;10469948;28;2954;-74
2023/12/06 02:58:32;;;;;;;;;;;;;;;1.61;100.00;95141.47;10472619;28;2883;-73
2023/12/06 03:03:34;;;;;;;;;;;;;;;1.58;100.00;95144.56;10467838;28;2840;-75
2023/12/06 03:08:36;;;;;;;;;;;;;;;1.61;100.00;95146.78;10465699;28;2865;-72
2023/12/06 03:13:39;;;;;;;;;;;;;;;1.54;100.00;95143.44;10469070;28;2966;-73
2023/12/06 03:18:41;;;;;;;;;;;;;;;1.50;100.00;95150.22;10476563;28;3239;-73
2023/12/06 03:23:44;;;;;;;;;;;;;;;1.52;100.00;95145.50;10462413;28;2823;-72
2023/12/06 03:28:46;;;;;;;;;;;;;;;1.48;100.00;95141.72;10475724;28;2847;-74
2023/12/06 03:33:49;;;;;;;;;;;;;;;1.47;100.00;95141.97;10466546;28;2820;-74
2023/12/06 03:38:51;;;;;;;;;;;;;;;1.42;100.00;95155.88;10464542;28;3218;-73
2023/12/06 03:43:54;;;;;;;;;;;;;;;1.47;100.00;95152.56;10462148;28;4674;-73
2023/12/06 03:49:04;;;;;;;;;;;;;;;1.40;100.00;95147.38;10472495;28;2871;-72
2023/12/06 03:54:07;;;;;;;;;;;;;;;1.44;100.00;95161.75;10465377;28;2853;-76
2023/12/06 03:59:09;;;;;;;;;;;;;;;1.40;100.00;95163.28;10477172;28;2934;-73
2023/12/06 04:04:12;;;;;;;;;;;;;;;1.40;100.00;95167.72;10469748;28;2796;-74
2023/12/06 04:09:15;;;;;;;;;;;;;;;1.39;100.00;95169.56;10479230;28;2932;-75
2023/12/06 04:14:18;;;;;;;;;;;;;;;1.37;100.00;95160.25;10470183;28;2812;-72
2023/12/06 04:19:20;;;;;;;;;;;;;;;1.40;100.00;95167.72;10465552;28;2933;-72
2023/12/06 04:24:23;;;;;;;;;;;;;;;1.39;100.00;95166.13;10475308;28;2829;-76
2023/12/06 04:29:26;;;;;;;;;;;;;;;1.32;100.00;95164.41;10476229;28;2998;-74
2023/12/06 04:34:28;;;;;;;;;;;;;;;1.30;100.00;95165.69;10503750;28;2870;-72
2023/12/06 04:39:30;;;;;;;;;;;;;;;1.32;100.00;95176.84;10465669;28;2847;-73
2023/12/06 04:44:33;;;;;;;;;;;;;;;1.28;100.00;95176.50;10464333;28;4698;-71
2023/12/06 04:49:36;;;;;;;;;;;;;;;1.29;100.00;95178.13;10470800;28;2910;-73
2023/12/06 04:54:38;;;;;;;;;;;;;;;1.34;100.00;95182.72;10474524;28;2902;-71
2023/12/06 04:59:41;;;;;;;;;;;;;;;1.34;100.00;95190.66;10478307;28;2792;-73
2023/12/06 05:04:43;;;;;;;;;;;;;;;1.35;100.00;95186.97;10476587;28;3215;-73
2023/12/06 05:09:46;;;;;;;;;;;;;;;1.33;100.00;95197.78;10469244;28;2799;-72
2023/12/06 05:14:50;;;;;;;;;;;;;;;1.33;100.00;95192.50;10467396;28;2868;-73
2023/12/06 05:19:53;;;;;;;;;;;;;;;1.24;100.00;95185.94;10479068;28;2804;-72
2023/12/06 05:24:55;;;;;;;;;;;;;;;1.25;100.00;95197.31;10471517;28;2827;-72
2023/12/06 05:29:57;;;;;;;;;;;;;;;1.20;100.00;95187.41;10468076;28;2901;-73
2023/12/06 05:35:00;;;;;;;;;;;;;;;1.20;100.00;95194.56;10475938;28;2879;-73
2023/12/06 05:40:03;;;;;;;;;;;;;;;1.27;100.00;95189.94;10466664;28;2859;-72
2023/12/06 05:45:06;;;;;;;;;;;;;;;1.30;100.00;95195.59;10476770;28;3170;-71
2023/12/06 05:50:10;;;;;;;;;;;;;;;1.26;100.00;95194.44;10477287;28;2838;-72
2023/12/06 05:55:12;;;;;;;;;;;;;;;1.14;100.00;95192.81;10472220;28;3120;-73
2023/12/06 06:00:17;;;;;;;;;;;;;;;1.12;100.00;95198.34;10477451;28;2821;-73
2023/12/06 06:05:20;;;;;;;;;;;;;;;1.11;100.00;95196.75;10474401;28;3091;-71
2023/12/06 06:10:22;;;;;;;;;;;;;;;1.12;100.00;95203.66;10472604;28;2881;-71
2023/12/06 06:15:24;;;;;;;;;;;;;;;1.18;100.00;95196.63;10472107;28;3271;-71
2023/12/06 06:20:27;;;;;;;;;;;;;;;1.24;100.00;95199.16;10462259;28;2934;-71
2023/12/06 06:25:29;;;;;;;;;;;;;;;1.22;100.00;95195.16;10464856;28;3043;-71
2023/12/06 06:30:32;;;;;;;;;;;;;;;1.16;100.00;95211.94;10463465;28;2846;-70
2023/12/06 06:35:34;;;;;;;;;;;;;;;1.15;100.00;95208.50;10465524;28;3092;-73
2023/12/06 06:40:37;;;;;;;;;;;;;;;1.18;100.00;95210.69;10455636;28;3158;-74
2023/12/06 06:45:42;;;;;;;;;;;;;;;1.27;100.00;95216.44;10461532;28;4657;-73
2023/12/06 06:50:45;;;;;;;;;;;;;;;1.30;100.00;95216.00;10468206;28;2840;-75
2023/12/06 06:55:49;;;;;;;;;;;;;;;1.40;100.00;95210.94;10463649;28;2851;-69
2023/12/06 07:00:51;;;;;;;;;;;;;;;1.43;100.00;95221.06;10466042;28;2804;-76
2023/12/06 07:05:54;;;;;;;;;;;;;;;1.50;100.00;95215.66;10464750;28;3255;-68
2023/12/06 07:10:56;;;;;;;;;;;;;;;1.47;100.00;95222.22;10474509;28;2922;-70
2023/12/06 07:15:59;;;;;;;;;;;;;;;1.57;100.00;95222.44;10467414;28;3191;-71
2023/12/06 07:21:01;;;;;;;;;;;;;;;1.61;100.00;95230.75;10469613;28;2827;-69
2023/12/06 07:26:06;;;;;;;;;;;;;;;1.62;100.00;95227.84;10467070;28;2834;-71
2023/12/06 07:31:08;;;;;;;;;;;;;;;1.71;100.00;95228.31;10471304;28;3151;-72
2023/12/06 07:36:12;;;;;;;;;;;;;;;1.73;100.00;95238.69;10467088;28;2940;-73
2023/12/06 07:41:16;;;;;;;;;;;;;;;1.82;100.00;95235.44;10476359;28;2870;-70
2023/12/06 07:46:19;;;;;;;;;;;;;;;1.86;100.00;95241.09;10470691;28;4917;-70
2023/12/06 07:51:22;;;;;;;;;;;;;;;1.95;100.00;95244.19;10466933;28;3354;-71
2023/12/06 07:56:24;;;;;;;;;;;;;;;2.05;100.00;95250.53;10477251;28;3236;-71
2023/12/06 08:01:31;;;;;;;;;;;;;;;2.21;100.00;95253.50;10467987;28;2880;-71
2023/12/06 08:06:34;;;;;;;;;;;;;;;2.21;100.00;95256.16;10470022;28;2878;-70
2023/12/06 08:11:36;;;;;;;;;;;;;;;2.34;100.00;95247.94;10463152;28;2848;-70
2023/12/06 08:16:39;;;;;;;;;;;;;;;2.25;100.00;95255.44;10469568;28;2855;-72
2023/12/06 08:21:41;;;;;;;;;;;;;;;2.36;100.00;95257.28;10467346;28;2840;-70
2023/12/06 08:26:44;;;;;;;;;;;;;;;2.30;100.00;95263.53;10469063;28;2936;-70
2023/12/06 08:31:46;;;;;;;;;;;;;;;2.38;100.00;95265.81;10469137;28;2919;-69
2023/12/06 08:36:48;;;;;;;;;;;;;;;2.34;100.00;95263.84;10478428;28;3135;-70
2023/12/06 08:41:51;;;;;;;;;;;;;;;2.42;100.00;95274.91;10469300;28;2877;-69
2023/12/06 08:46:54;;;;;;;;;;;;;;;2.31;100.00;95285.53;10466663;28;4674;-70
2023/12/06 08:51:56;;;;;;;;;;;;;;;2.42;100.00;95293.47;10476324;28;2863;-69
2023/12/06 08:56:59;;;;;;;;;;;;;;;2.42;100.00;95290.03;10478502;28;3297;-68
2023/12/06 09:02:01;;;;;;;;;;;;;;;2.57;100.00;95292.97;10471821;28;2828;-71
2023/12/06 09:07:05;;;;;;;;;;;;;;;2.56;100.00;95288.72;10467458;28;3267;-70
2023/12/06 09:12:08;;;;;;;;;;;;;;;2.78;100.00;95296.81;10471099;28;2828;-76
2023/12/06 09:17:10;;;;;;;;;;;;;;;2.98;100.00;95299.84;10472116;28;2839;-75
2023/12/06 09:22:15;;;;;;;;;;;;;;;3.09;100.00;95305.38;10471687;28;3011;-71
2023/12/06 09:27:21;;;;;;;;;;;;;;;3.23;100.00;95304.81;10468424;28;2962;-70
2023/12/06 09:32:24;;;;;;;;;;;;;;;3.16;100.00;95319.31;10472205;28;3278;-70
2023/12/06 09:37:27;;;;;;;;;;;;;;;3.02;100.00;95317.97;10469928;28;3107;-72
2023/12/06 09:42:32;;;;;;;;;;;;;;;3.14;100.00;95319.56;10474961;28;2847;-71
2023/12/06 09:47:34;;;;;;;;;;;;;;;3.23;100.00;95320.75;10472209;28;4717;-71
2023/12/06 09:52:38;;;;;;;;;;;;;;;3.44;100.00;95321.16;10474680;28;2849;-72
2023/12/06 09:57:41;;;;;;;;;;;;;;;3.21;100.00;95316.75;10475774;28;2873;-72
2023/12/06 10:02:43;;;;;;;;;;;;;;;3.30;100.00;95317.97;10474457;28;2845;-72
2023/12/06 10:07:47;;;;;;;;;;;;;;;3.43;100.00;95330.94;10471643;28;2803;-75
2023/12/06 10:12:50;;;;;;;;;;;;;;;3.60;100.00;95325.66;10477146;28;2918;-72
2023/12/06 10:17:52;;;;;;;;;;;;;;;3.73;100.00;95316.56;10472161;28;2942;-71
2023/12/06 10:22:55;;;;;;;;;;;;;;;3.67;100.00;95328.97;10471632;28;2918;-72
2023/12/06 10:27:57;;;;;;;;;;;;;;;3.79;100.00;95318.25;10468636;28;2819;-71
2023/12/06 10:33:02;;;;;;;;;;;;;;;3.99;100.00;95325.75;10466779;28;2868;-72
2023/12/06 10:38:05;;;;;;;;;;;;;;;4.10;100.00;95316.06;10469198;28;2859;-74
2023/12/06 10:43:09;;;;;;;;;;;;;;;4.27;100.00;95314.19;10467423;28;2838;-72
2023/12/06 10:48:11;;;;;;;;;;;;;;;4.29;100.00;95306.75;10471891;28;3135;-70
2023/12/06 10:53:16;;;;;;;;;;;;;;;4.23;100.00;95302.41;10467559;28;3258;-71
2023/12/06 10:58:18;;;;;;;;;;;;;;;4.32;100.00;95307.06;10469508;28;2947;-72
2023/12/06 11:03:20;;;;;;;;;;;;;;;4.26;100.00;95302.75;10467746;28;2958;-72
2023/12/06 11:08:23;;;;;;;;;;;;;;;4.39;100.00;95306.06;10476463;28;2852;-71
2023/12/06 11:13:27;;;;;;;;;;;;;;;4.56;100.00;95309.50;10468513;28;2850;-71
2023/12/06 11:18:30;;;;;;;;;;;;;;;4.38;100.00;95307.13;10474999;28;2826;-71
2023/12/06 11:23:33;;;;;;;;;;;;;;;4.67;100.00;95308.59;10465169;28;2821;-69
2023/12/06 11:28:36;;;;;;;;;;;;;;;4.58;100.00;95307.41;10473538;28;2811;-73
2023/12/06 11:33:38;;;;;;;;;;;;;;;4.21;100.00;95305.34;10467156;28;2868;-72
2023/12/06 11:38:42;;;;;;;;;;;;;;;4.30;100.00;95319.81;10467012;28;3248;-71
2023/12/06 11:43:45;;;;;;;;;;;;;;;4.25;100.00;95314.41;10460456;28;4852;-70
2023/12/06 11:48:47;;;;;;;;;;;;;;;4.06;100.00;95318.41;10465443;28;2874;-70
2023/12/06 11:53:50;;;;;;;;;;;;;;;4.10;100.00;95324.03;10464668;28;2934;-70
2023/12/06 11:58:53;;;;;;;;;;;;;;;4.10;100.00;95316.06;10465134;28;2954;-71
2023/12/06 12:03:55;;;;;;;;;;;;;;;3.96;100.00;95321.72;10478726;28;2809;-71
2023/12/06 12:09:02;;;;;;;;;;;;;;;3.93;100.00;95316.06;10470871;28;2950;-74
2023/12/06 12:14:05;;;;;;;;;;;;;;;3.78;100.00;95322.75;10479667;28;2908;-76
2023/12/06 12:19:08;;;;;;;;;;;;;;;3.91;100.00;95326.97;10470145;28;2839;-71
2023/12/06 12:24:11;;;;;;;;;;;;;;;3.61;100.00;95329.13;10473650;28;2888;-72
2023/12/06 12:29:13;;;;;;;;;;;;;;;3.66;100.00;95324.69;10469246;28;2868;-71
2023/12/06 12:34:16;;;;;;;;;;;;;;;3.66;100.00;95329.22;10466048;28;2859;-70
2023/12/06 12:39:18;;;;;;;;;;;;;;;3.67;100.00;95336.94;10475852;28;3723;-71
2023/12/06 12:44:21;;;;;;;;;;;;;;;3.57;100.00;95343.94;10479586;28;4670;-74
2023/12/06 12:49:23;;;;;;;;;;;;;;;3.44;100.00;95337.91;10471867;28;2881;-74
2023/12/06 12:54:26;;;;;;;;;;;;;;;3.32;100.00;95342.47;10471257;28;2891;-72
2023/12/06 12:59:28;;;;;;;;;;;;;;;3.33;100.00;95354.69;10470256;28;2919;-73
2023/12/06 13:04:31;;;;;;;;;;;;;;;3.44;100.00;95347.72;10476251;28;2931;-72
2023/12/06 13:09:34;;;;;;;;;;;;;;;3.51;100.00;95348.38;10476013;28;2803;-72
2023/12/06 13:14:36;;;;;;;;;;;;;;;3.54;100.00;95355.84;10480886;28;2858;-73
2023/12/06 13:19:39;;;;;;;;;;;;;;;3.60;100.00;95357.53;10477225;28;3152;-76
2023/12/06 13:24:42;;;;;;;;;;;;;;;3.63;100.00;95357.09;10471859;28;2878;-74
2023/12/06 13:29:45;;;;;;;;;;;;;;;3.44;100.00;95358.34;10473223;28;2920;-72
2023/12/06 13:34:47;;;;;;;;;;;;;;;3.42;100.00;95363.06;10475189;28;2795;-71
2023/12/06 13:39:50;;;;;;;;;;;;;;;3.37;100.00;95360.31;10481003;28;2983;-74
2023/12/06 13:44:52;;;;;;;;;;;;;;;3.24;100.00;95370.22;10477711;28;4924;-71
2023/12/06 13:49:55;;;;;;;;;;;;;;;3.18;100.00;95386.25;10473881;28;2944;-72
2023/12/06 13:54:57;;;;;;;;;;;;;;;3.23;100.00;95373.88;10467016;28;2918;-72
2023/12/06 14:00:00;;;;;;;;;;;;;;;3.14;100.00;95385.13;10474391;28;3106;-72
2023/12/06 14:05:03;;;;;;;;;;;;;;;3.15;100.00;95386.75;10468633;28;2807;-72
2023/12/06 14:10:06;;;;;;;;;;;;;;;3.07;100.00;95395.09;10478182;28;3346;-72
2023/12/06 14:15:09;;;;;;;;;;;;;;;2.92;100.00;95403.53;10479946;28;3358;-70
2023/12/06 14:20:12;;;;;;;;;;;;;;;2.89;100.00;95401.38;10479779;28;2867;-73
2023/12/06 14:25:15;;;;;;;;;;;;;;;3.00;100.00;95408.50;10477132;28;2868;-71
2023/12/06 14:30:18;;;;;;;;;;;;;;;2.89;100.00;95414.66;10470992;28;3053;-71
2023/12/06 14:35:21;;;;;;;;;;;;;;;2.92;100.00;95420.28;10472729;28;2912;-72
2023/12/06 14:40:23;;;;;;;;;;;;;;;2.72;100.00;95420.66;10468933;28;2941;-69
2023/12/06 14:45:26;;;;;;;;;;;;;;;2.75;100.00;95435.31;10472614;28;4839;-71
2023/12/06 14:50:28;;;;;;;;;;;;;;;2.52;100.00;95438.78;10470188;28;2867;-68
2023/12/06 14:55:31;;;;;;;;;;;;;;;2.62;100.00;95441.69;10471317;28;2919;-70
2023/12/06 15:00:33;;;;;;;;;;;;;;;2.54;100.00;95451.81;10476145;28;2903;-71
2023/12/06 15:05:36;;;;;;;;;;;;;;;2.38;100.00;95461.28;10470419;28;2855;-69
2023/12/06 15:10:38;;;;;;;;;;;;;;;2.35;100.00;95459.88;10471743;28;3483;-70
2023/12/06 15:15:41;;;;;;;;;;;;;;;2.23;100.00;95463.56;10469649;28;2877;-70
2023/12/06 15:20:43;;;;;;;;;;;;;;;2.20;100.00;95469.34;10470865;28;2954;-72
2023/12/06 15:25:46;;;;;;;;;;;;;;;2.15;100.00;95478.78;10473567;28;2894;-76
2023/12/06 15:30:48;;;;;;;;;;;;;;;2.17;100.00;95487.31;10473189;28;2842;-71
2023/12/06 15:35:51;;;;;;;;;;;;;;;2.23;100.00;95479.47;10472802;28;2917;-69
2023/12/06 15:40:53;;;;;;;;;;;;;;;2.24;100.00;95483.75;10470973;28;2846;-70
2023/12/06 15:45:56;;;;;;;;;;;;;;;2.14;100.00;95487.75;10462054;28;4686;-71
2023/12/06 15:51:01;;;;;;;;;;;;;;;2.21;100.00;95495.63;10472940;28;2867;-72
2023/12/06 15:56:03;;;;;;;;;;;;;;;2.14;100.00;95500.22;10465466;28;3107;-70
2023/12/06 16:01:07;;;;;;;;;;;;;;;2.15;100.00;95510.59;10465996;28;3008;-70
2023/12/06 16:06:09;;;;;;;;;;;;;;;2.17;100.00;95519.16;10464195;28;2932;-74
2023/12/06 16:11:12;;;;;;;;;;;;;;;2.08;100.00;95522.34;10465903;28;2803;-71
2023/12/06 16:16:14;;;;;;;;;;;;;;;2.16;100.00;95527.31;10471290;28;2897;-76
2023/12/06 16:21:18;;;;;;;;;;;;;;;2.20;100.00;95527.69;10461589;28;2847;-73
2023/12/06 16:26:20;;;;;;;;;;;;;;;2.14;100.00;95538.16;10464333;28;2869;-72
2023/12/06 16:31:23;;;;;;;;;;;;;;;2.20;100.00;95554.19;10467831;28;2879;-71
2023/12/06 16:36:26;;;;;;;;;;;;;;;2.15;100.00;95568.13;10464003;28;2963;-72
2023/12/06 16:41:28;;;;;;;;;;;;;;;2.14;100.00;95575.28;10468124;28;2898;-71
2023/12/06 16:46:31;;;;;;;;;;;;;;;2.03;100.00;95583.97;10475972;28;2943;-72
2023/12/06 16:51:34;;;;;;;;;;;;;;;2.11;100.00;95599.59;10474794;28;2819;-71
2023/12/06 16:56:37;;;;;;;;;;;;;;;2.07;100.00;95593.13;10470707;28;2891;-69
2023/12/06 17:01:40;;;;;;;;;;;;;;;1.98;100.00;95605.09;10467519;28;3176;-71
2023/12/06 17:06:43;;;;;;;;;;;;;;;1.94;100.00;95619.81;10470821;28;2940;-71
2023/12/06 17:11:45;;;;;;;;;;;;;;;1.98;100.00;95620.19;10486275;28;2835;-71
2023/12/06 17:16:47;;;;;;;;;;;;;;;1.89;100.00;95636.38;10471524;28;3107;-71
2023/12/06 17:21:50;;;;;;;;;;;;;;;1.80;100.00;95637.72;10478127;28;3062;-70
2023/12/06 17:26:54;;;;;;;;;;;;;;;1.75;100.00;95642.06;10475802;28;2932;-70
2023/12/06 17:31:56;;;;;;;;;;;;;;;1.72;100.00;95637.19;10476679;28;2835;-72
2023/12/06 17:36:59;;;;;;;;;;;;;;;1.66;100.00;95638.09;10463946;28;2887;-70
2023/12/06 17:42:02;;;;;;;;;;;;;;;1.64;100.00;95651.53;10474428;28;2879;-72
2023/12/06 17:47:04;;;;;;;;;;;;;;;1.61;100.00;95658.09;10467555;28;4543;-71
2023/12/06 17:52:07;;;;;;;;;;;;;;;1.61;100.00;95668.69;10472933;28;2986;-72
2023/12/06 17:57:09;;;;;;;;;;;;;;;1.65;100.00;95684.13;10470794;28;2887;-72
2023/12/06 18:02:14;;;;;;;;;;;;;;;1.65;100.00;95684.13;10473329;28;3339;-70
2023/12/06 18:07:17;;;;;;;;;;;;;;;1.55;100.00;95687.31;10466903;28;2928;-72
2023/12/06 18:12:20;;;;;;;;;;;;;;;1.44;100.00;95694.13;10469282;28;2924;-76
2023/12/06 18:17:22;;;;;;;;;;;;;;;1.46;100.00;95696.56;10475260;28;2915;-76
2023/12/06 18:22:27;;;;;;;;;;;;;;;1.45;100.00;95701.03;10469008;28;3208;-70
2023/12/06 18:27:29;;;;;;;;;;;;;;;1.51;100.00;95700.16;10466773;28;2907;-74
2023/12/06 18:32:32;;;;;;;;;;;;;;;1.47;100.00;95708.78;10465499;28;2946;-73
2023/12/06 18:37:34;;;;;;;;;;;;;;;1.46;100.00;95721.19;10465753;28;2916;-71
2023/12/06 18:42:38;;;;;;;;;;;;;;;1.52;100.00;95722.97;10467731;28;2925;-71
2023/12/06 18:47:41;;;;;;;;;;;;;;;1.50;100.00;95729.53;10468205;28;4634;-71
2023/12/06 18:52:43;;;;;;;;;;;;;;;1.54;100.00;95728.09;10478340;28;2896;-70
2023/12/06 18:57:46;;;;;;;;;;;;;;;1.53;100.00;95721.97;10473576;28;2787;-70
2023/12/06 19:02:48;;;;;;;;;;;;;;;1.48;100.00;95735.06;10466635;28;3259;-74
2023/12/06 19:07:54;;;;;;;;;;;;;;;1.50;100.00;95733.00;10468025;28;2830;-74
2023/12/06 19:12:57;;;;;;;;;;;;;;;1.42;100.00;95727.19;10465057;28;2840;-78
2023/12/06 19:18:00;;;;;;;;;;;;;;;1.44;100.00;95725.91;10462546;28;2869;-73
2023/12/06 19:23:02;;;;;;;;;;;;;;;1.45;100.00;95735.47;10463168;28;2822;-73
2023/12/06 19:28:05;;;;;;;;;;;;;;;1.52;100.00;95733.56;10461826;28;2902;-72
2023/12/06 19:33:08;;;;;;;;;;;;;;;1.46;100.00;95746.88;10462471;28;2880;-74
2023/12/06 19:38:11;;;;;;;;;;;;;;;1.44;100.00;95749.75;10466204;28;2947;-75
2023/12/06 19:43:16;;;;;;;;;;;;;;;1.46;100.00;95760.94;10469297;28;4693;-73
2023/12/06 19:48:18;;;;;;;;;;;;;;;1.54;100.00;95758.03;10472094;28;2875;-79
2023/12/06 19:53:21;;;;;;;;;;;;;;;1.47;100.00;95754.63;10470594;28;2866;-79
2023/12/06 19:58:23;;;;;;;;;;;;;;;1.51;100.00;95758.44;10470004;28;2819;-75
2023/12/06 20:03:26;;;;;;;;;;;;;;;1.49;100.00;95759.72;10465800;28;2917;-71
2023/12/06 20:08:29;;;;;;;;;;;;;;;1.49;100.00;95770.31;10471295;28;2826;-69
2023/12/06 20:13:31;;;;;;;;;;;;;;;1.50;100.00;95770.09;10465153;28;2998;-72
2023/12/06 20:18:34;;;;;;;;;;;;;;;1.51;100.00;95779.66;10478608;28;2923;-73
2023/12/06 20:23:37;;;;;;;;;;;;;;;1.50;100.00;95775.38;10475749;28;2881;-76
2023/12/06 20:28:40;;;;;;;;;;;;;;;1.56;100.00;95787.75;10475816;28;2880;-71
2023/12/06 20:33:42;;;;;;;;;;;;;;;1.49;100.00;95804.75;10472395;28;2899;-71
2023/12/06 20:38:45;;;;;;;;;;;;;;;1.45;100.00;95801.69;10476817;28;2842;-71
2023/12/06 20:43:48;;;;;;;;;;;;;;;1.46;100.00;95797.22;10477191;28;2855;-70
2023/12/06 20:48:50;;;;;;;;;;;;;;;1.48;100.00;95811.06;10478978;28;2890;-71
2023/12/06 20:53:54;;;;;;;;;;;;;;;1.48;100.00;95806.59;10475441;28;2855;-72
2023/12/06 20:58:56;;;;;;;;;;;;;;;1.49;100.00;95812.69;10478331;28;2916;-73
2023/12/06 21:04:01;;;;;;;;;;;;;;;1.54;100.00;95818.97;10484303;28;2850;-70
2023/12/06 21:09:05;;;;;;;;;;;;;;;1.56;100.00;95824.03;10472837;28;2917;-69
2023/12/06 21:14:07;;;;;;;;;;;;;;;1.58;100.00;95821.97;10472063;28;2874;-70
2023/12/06 21:19:10;;;;;;;;;;;;;;;1.70;100.00;95836.16;10476880;28;2859;-70
2023/12/06 21:24:14;;;;;;;;;;;;;;;1.70;100.00;95836.16;10473270;28;2847;-72
2023/12/06 21:29:18;;;;;;;;;;;;;;;1.72;100.00;95841.22;10475128;28;2890;-72
2023/12/06 21:34:21;;;;;;;;;;;;;;;1.72;100.00;95833.28;10483783;28;2859;-74
2023/12/06 21:39:23;;;;;;;;;;;;;;;1.80;100.00;95846.28;10471242;28;2847;-74
2023/12/06 21:44:27;;;;;;;;;;;;;;;1.77;100.00;95841.41;10472265;28;4694;-72
2023/12/06 21:49:31;;;;;;;;;;;;;;;1.67;100.00;95846.38;10484545;28;2827;-72
2023/12/06 21:54:33;;;;;;;;;;;;;;;1.65;100.00;95848.44;10478008;28;3132;-72
2023/12/06 21:59:36;;;;;;;;;;;;;;;1.65;100.00;95859.03;10478048;28;2923;-72
2023/12/06 22:04:38;;;;;;;;;;;;;;;1.64;100.00;95858.22;10476687;28;3184;-72
2023/12/06 22:09:41;;;;;;;;;;;;;;;1.59;100.00;95858.88;10475359;28;2933;-72
2023/12/06 22:14:43;;;;;;;;;;;;;;;1.55;100.00;95860.31;10483692;28;2910;-72
2023/12/06 22:19:45;;;;;;;;;;;;;;;1.57;100.00;95858.25;10477087;28;2927;-73
2023/12/06 22:24:48;;;;;;;;;;;;;;;1.59;100.00;95861.53;10472441;28;2879;-73
2023/12/06 22:29:51;;;;;;;;;;;;;;;1.57;100.00;95868.06;10468030;28;2929;-71
2023/12/06 22:34:53;;;;;;;;;;;;;;;1.60;100.00;95862.34;10478756;28;2839;-73
2023/12/06 22:39:58;;;;;;;;;;;;;;;1.56;100.00;95869.91;10474867;28;2840;-72
2023/12/06 22:45:01;;;;;;;;;;;;;;;1.56;100.00;95874.38;10474063;28;4701;-71
2023/12/06 22:50:03;;;;;;;;;;;;;;;1.59;100.00;95877.44;10471595;28;2938;-72
2023/12/06 22:55:05;;;;;;;;;;;;;;;1.52;100.00;95881.13;10477756;28;2812;-71
2023/12/06 23:00:09;;;;;;;;;;;;;;;1.48;100.00;95885.25;10468104;28;2894;-74
2023/12/06 23:05:11;;;;;;;;;;;;;;;1.41;100.00;95885.28;10473887;28;2889;-73
2023/12/06 23:10:15;;;;;;;;;;;;;;;1.44;100.00;95879.56;10467611;28;2883;-72
2023/12/06 23:15:18;;;;;;;;;;;;;;;1.41;100.00;95874.69;10463674;28;2927;-72
2023/12/06 23:20:20;;;;;;;;;;;;;;;1.39;100.00;95881.22;10465578;28;2820;-72
2023/12/06 23:25:23;;;;;;;;;;;;;;;1.41;100.00;95873.88;10468409;28;2870;-72
2023/12/06 23:30:26;;;;;;;;;;;;;;;1.30;100.00;95878.00;10470973;28;2872;-71
2023/12/06 23:35:28;;;;;;;;;;;;;;;1.29;100.00;95879.03;10481776;28;2885;-72
2023/12/06 23:40:30;;;;;;;;;;;;;;;1.22;100.00;95887.03;10469604;28;2868;-71
2023/12/06 23:45:33;;;;;;;;;;;;;;;1.12;100.00;95891.16;10469286;28;2830;-73
2023/12/06 23:50:35;;;;;;;;;;;;;;;1.03;100.00;95894.03;10467788;28;2887;-71
2023/12/06 23:55:38;;;;;;;;;;;;;;;1.02;100.00;95897.72;10472198;28;2931;-72
